sensor_id;sensor_type;location;lat;lon;timestamp;pressure;altitude;pressure_sealevel;temperature;humidity
35910;BME280;22004;49.120;-0.200;2022-10-30T08:03:15;101476.19;;;15.48;81.04
35910;BME280;22004;49.120;-0.200;2022-10-30T08:05:40;101463.88;;;15.03;81.81
35910;BME280;22004;49.120;-0.200;2022-10-30T08:08:06;101470.50;;;15.43;81.53
35910;BME280;22004;49.120;-0.200;2022-10-30T08:10:32;101473.34;;;15.57;80.65
35910;BME280;22004;49.120;-0.200;2022-10-30T08:12:57;101480.22;;;15.59;80.41
35910;BME280;22004;49.120;-0.200;2022-10-30T08:15:23;101478.16;;;15.61;80.46
35910;BME280;22004;49.120;-0.200;2022-10-30T08:17:49;101486.38;;;15.68;80.44
35910;BME280;22004;49.120;-0.200;2022-10-30T08:20:17;101483.13;;;15.58;79.93
35910;BME280;22004;49.120;-0.200;2022-10-30T08:22:50;101480.69;;;15.63;80.53
35910;BME280;22004;49.120;-0.200;2022-10-30T08:25:18;101499.63;;;15.63;80.50
35910;BME280;22004;49.120;-0.200;2022-10-30T08:27:57;101496.38;;;15.67;80.37
35910;BME280;22004;49.120;-0.200;2022-10-30T08:30:24;101492.41;;;15.70;80.57
35910;BME280;22004;49.120;-0.200;2022-10-30T08:32:50;101486.81;;;15.50;80.26
35910;BME280;22004;49.120;-0.200;2022-10-30T08:35:16;101484.03;;;15.65;80.30
35910;BME280;22004;49.120;-0.200;2022-10-30T08:37:41;101488.03;;;15.69;80.25
35910;BME280;22004;49.120;-0.200;2022-10-30T08:40:08;101490.53;;;15.70;80.31
35910;BME280;22004;49.120;-0.200;2022-10-30T08:42:33;101496.00;;;15.56;80.24
35910;BME280;22004;49.120;-0.200;2022-10-30T08:44:59;101494.28;;;15.69;80.49
35910;BME280;22004;49.120;-0.200;2022-10-30T08:47:24;101497.44;;;15.73;80.25
35910;BME280;22004;49.120;-0.200;2022-10-30T08:49:50;101495.41;;;15.60;79.54
35910;BME280;22004;49.120;-0.200;2022-10-30T08:52:15;101497.53;;;15.37;80.56
35910;BME280;22004;49.120;-0.200;2022-10-30T08:54:40;101491.84;;;15.32;80.90
35910;BME280;22004;49.120;-0.200;2022-10-30T08:57:06;101494.78;;;15.58;80.09
35910;BME280;22004;49.120;-0.200;2022-10-30T08:59:31;101503.88;;;15.50;79.84
35910;BME280;22004;49.120;-0.200;2022-10-30T09:01:56;101504.25;;;15.26;79.20
35910;BME280;22004;49.120;-0.200;2022-10-30T09:04:22;101511.31;;;15.42;81.14
35910;BME280;22004;49.120;-0.200;2022-10-30T09:06:47;101503.47;;;15.11;79.97
35910;BME280;22004;49.120;-0.200;2022-10-30T09:09:12;101506.75;;;15.06;80.56
35910;BME280;22004;49.120;-0.200;2022-10-30T09:11:38;101512.13;;;15.42;81.11
35910;BME280;22004;49.120;-0.200;2022-10-30T09:14:04;101512.25;;;15.13;81.56
35910;BME280;22004;49.120;-0.200;2022-10-30T09:16:29;101518.66;;;15.48;81.07
35910;BME280;22004;49.120;-0.200;2022-10-30T09:18:54;101509.16;;;15.59;79.55
35910;BME280;22004;49.120;-0.200;2022-10-30T09:21:20;101520.31;;;15.70;80.27
35910;BME280;22004;49.120;-0.200;2022-10-30T09:23:45;101515.75;;;15.28;81.38
35910;BME280;22004;49.120;-0.200;2022-10-30T09:26:11;101517.47;;;15.36;81.24
35910;BME280;22004;49.120;-0.200;2022-10-30T09:28:36;101514.84;;;15.42;80.01
35910;BME280;22004;49.120;-0.200;2022-10-30T09:31:02;101513.94;;;15.14;80.60
35910;BME280;22004;49.120;-0.200;2022-10-30T09:33:28;101517.72;;;15.19;80.06
35910;BME280;22004;49.120;-0.200;2022-10-30T09:35:53;101504.28;;;14.90;80.68
35910;BME280;22004;49.120;-0.200;2022-10-30T09:38:18;101503.16;;;14.63;83.44
35910;BME280;22004;49.120;-0.200;2022-10-30T09:57:50;101491.28;;;14.79;82.63
35910;BME280;22004;49.120;-0.200;2022-10-30T10:00:22;101483.09;;;15.08;81.68
35910;BME280;22004;49.120;-0.200;2022-10-30T10:05:57;101492.41;;;15.48;80.98
35910;BME280;22004;49.120;-0.200;2022-10-30T10:08:33;101478.00;;;15.20;81.48
35910;BME280;22004;49.120;-0.200;2022-10-30T10:11:18;101497.06;;;15.12;80.76
35910;BME280;22004;49.120;-0.200;2022-10-30T10:14:04;101500.81;;;15.32;80.67
35910;BME280;22004;49.120;-0.200;2022-10-30T10:16:34;101482.41;;;15.06;81.15
35910;BME280;22004;49.120;-0.200;2022-10-30T10:21:46;101462.28;;;14.87;81.54
35910;BME280;22004;49.120;-0.200;2022-10-30T10:24:21;101471.78;;;15.26;81.23
35910;BME280;22004;49.120;-0.200;2022-10-30T10:27:22;101469.03;;;15.41;81.22
35910;BME280;22004;49.120;-0.200;2022-10-30T10:30:14;101501.91;;;15.38;80.05
35910;BME280;22004;49.120;-0.200;2022-10-30T10:32:55;101518.81;;;15.25;80.10
35910;BME280;22004;49.120;-0.200;2022-10-30T10:41:30;101525.59;;;15.36;79.06
35910;BME280;22004;49.120;-0.200;2022-10-30T10:44:21;101557.25;;;15.20;80.66
35910;BME280;22004;49.120;-0.200;2022-10-30T10:47:23;101542.00;;;15.56;80.38
35910;BME280;22004;49.120;-0.200;2022-10-30T10:50:02;101541.50;;;15.24;79.70
35910;BME280;22004;49.120;-0.200;2022-10-30T10:52:46;101542.59;;;15.30;80.06
35910;BME280;22004;49.120;-0.200;2022-10-30T10:55:16;101533.69;;;15.36;80.76
35910;BME280;22004;49.120;-0.200;2022-10-30T10:57:44;101537.91;;;15.17;80.52
35910;BME280;22004;49.120;-0.200;2022-10-30T11:00:18;101540.28;;;14.46;81.95
35910;BME280;22004;49.120;-0.200;2022-10-30T11:02:50;101557.06;;;14.86;82.17
35910;BME280;22004;49.120;-0.200;2022-10-30T11:05:38;101558.69;;;14.51;82.22
35910;BME280;22004;49.120;-0.200;2022-10-30T11:08:23;101562.03;;;14.82;81.56
35910;BME280;22004;49.120;-0.200;2022-10-30T11:11:01;101557.47;;;14.83;81.25
35910;BME280;22004;49.120;-0.200;2022-10-30T11:13:34;101562.88;;;15.19;81.78
35910;BME280;22004;49.120;-0.200;2022-10-30T11:18:43;101563.69;;;14.98;82.19
35910;BME280;22004;49.120;-0.200;2022-10-30T11:21:14;101570.53;;;15.15;80.53
35910;BME280;22004;49.120;-0.200;2022-10-30T11:23:43;101585.72;;;15.16;79.74
35910;BME280;22004;49.120;-0.200;2022-10-30T11:33:46;101596.66;;;15.44;80.02
35910;BME280;22004;49.120;-0.200;2022-10-30T11:36:14;101584.06;;;15.51;80.22
35910;BME280;22004;49.120;-0.200;2022-10-30T11:38:40;101587.03;;;15.57;79.98
35910;BME280;22004;49.120;-0.200;2022-10-30T11:41:05;101576.41;;;15.76;79.51
35910;BME280;22004;49.120;-0.200;2022-10-30T11:43:34;101571.63;;;15.21;80.38
35910;BME280;22004;49.120;-0.200;2022-10-30T11:46:00;101568.16;;;14.91;79.99
35910;BME280;22004;49.120;-0.200;2022-10-30T11:48:28;101561.16;;;15.33;79.21
35910;BME280;22004;49.120;-0.200;2022-10-30T11:50:58;101544.47;;;14.93;80.75
35910;BME280;22004;49.120;-0.200;2022-10-30T11:53:27;101536.16;;;15.31;80.22
35910;BME280;22004;49.120;-0.200;2022-10-30T11:55:56;101559.44;;;15.46;79.37
35910;BME280;22004;49.120;-0.200;2022-10-30T11:58:34;101569.28;;;15.54;79.65
35910;BME280;22004;49.120;-0.200;2022-10-30T12:03:37;101571.72;;;15.49;79.80
35910;BME280;22004;49.120;-0.200;2022-10-30T12:08:35;101571.31;;;15.31;79.43
35910;BME280;22004;49.120;-0.200;2022-10-30T12:11:02;101560.19;;;15.40;77.67
35910;BME280;22004;49.120;-0.200;2022-10-30T12:13:37;101558.25;;;15.56;79.99
35910;BME280;22004;49.120;-0.200;2022-10-30T12:16:13;101551.81;;;15.35;78.41
35910;BME280;22004;49.120;-0.200;2022-10-30T12:18:40;101554.66;;;15.70;79.32
35910;BME280;22004;49.120;-0.200;2022-10-30T12:21:06;101555.50;;;15.70;79.17
35910;BME280;22004;49.120;-0.200;2022-10-30T12:23:33;101562.41;;;15.51;77.70
35910;BME280;22004;49.120;-0.200;2022-10-30T12:26:06;101565.09;;;15.51;80.05
35910;BME280;22004;49.120;-0.200;2022-10-30T12:28:34;101560.31;;;15.32;78.60
35910;BME280;22004;49.120;-0.200;2022-10-30T12:31:04;101563.72;;;15.41;77.54
35910;BME280;22004;49.120;-0.200;2022-10-30T12:33:36;101569.06;;;15.34;79.80
35910;BME280;22004;49.120;-0.200;2022-10-30T12:36:13;101559.34;;;15.40;79.47
35910;BME280;22004;49.120;-0.200;2022-10-30T12:41:11;101547.06;;;15.01;78.91
35910;BME280;22004;49.120;-0.200;2022-10-30T12:43:41;101556.69;;;15.25;79.50
35910;BME280;22004;49.120;-0.200;2022-10-30T12:46:37;101551.38;;;15.53;78.58
35910;BME280;22004;49.120;-0.200;2022-10-30T12:49:15;101549.38;;;15.83;78.08
35910;BME280;22004;49.120;-0.200;2022-10-30T12:57:32;101543.44;;;15.30;79.49
35910;BME280;22004;49.120;-0.200;2022-10-30T13:00:09;101549.88;;;15.29;79.09
35910;BME280;22004;49.120;-0.200;2022-10-30T13:05:12;101534.94;;;15.33;79.76
35910;BME280;22004;49.120;-0.200;2022-10-30T13:07:47;101541.84;;;15.57;77.82
35910;BME280;22004;49.120;-0.200;2022-10-30T13:10:22;101542.22;;;15.33;78.32
35910;BME280;22004;49.120;-0.200;2022-10-30T13:12:51;101529.59;;;15.18;78.25
35910;BME280;22004;49.120;-0.200;2022-10-30T13:15:28;101534.88;;;15.48;77.75
35910;BME280;22004;49.120;-0.200;2022-10-30T13:17:57;101527.38;;;15.50;78.74
35910;BME280;22004;49.120;-0.200;2022-10-30T13:20:25;101529.31;;;15.13;79.04
35910;BME280;22004;49.120;-0.200;2022-10-30T13:23:01;101543.44;;;15.30;78.26
35910;BME280;22004;49.120;-0.200;2022-10-30T13:26:02;101539.44;;;15.26;78.23
35910;BME280;22004;49.120;-0.200;2022-10-30T13:31:08;101541.72;;;15.65;78.77
35910;BME280;22004;49.120;-0.200;2022-10-30T13:33:43;101536.50;;;15.42;78.35
35910;BME280;22004;49.120;-0.200;2022-10-30T13:36:24;101525.09;;;15.47;77.18
35910;BME280;22004;49.120;-0.200;2022-10-30T13:47:34;101535.50;;;15.50;76.90
35910;BME280;22004;49.120;-0.200;2022-10-30T13:52:45;101545.97;;;15.53;77.03
35910;BME280;22004;49.120;-0.200;2022-10-30T13:55:18;101547.69;;;15.39;77.84
35910;BME280;22004;49.120;-0.200;2022-10-30T13:58:11;101550.53;;;15.52;77.75
35910;BME280;22004;49.120;-0.200;2022-10-30T14:03:32;101549.09;;;15.71;76.65
35910;BME280;22004;49.120;-0.200;2022-10-30T14:12:00;101544.97;;;16.03;76.56
35910;BME280;22004;49.120;-0.200;2022-10-30T14:14:28;101539.13;;;15.79;75.51
35910;BME280;22004;49.120;-0.200;2022-10-30T14:17:15;101542.00;;;15.56;76.27
35910;BME280;22004;49.120;-0.200;2022-10-30T14:22:33;101547.50;;;15.41;75.57
35910;BME280;22004;49.120;-0.200;2022-10-30T14:25:00;101542.28;;;15.39;76.10
35910;BME280;22004;49.120;-0.200;2022-10-30T14:27:30;101541.06;;;15.42;77.24
35910;BME280;22004;49.120;-0.200;2022-10-30T14:29:57;101546.50;;;15.63;76.07
35910;BME280;22004;49.120;-0.200;2022-10-30T14:39:48;101538.41;;;15.91;74.89
35910;BME280;22004;49.120;-0.200;2022-10-30T14:55:28;101540.84;;;15.86;74.27
35910;BME280;22004;49.120;-0.200;2022-10-30T15:05:43;101547.34;;;15.64;75.44
35910;BME280;22004;49.120;-0.200;2022-10-30T15:13:27;101565.38;;;15.57;74.84
35910;BME280;22004;49.120;-0.200;2022-10-30T15:16:00;101567.56;;;15.46;75.87
35910;BME280;22004;49.120;-0.200;2022-10-30T15:18:27;101576.31;;;15.48;76.33
35910;BME280;22004;49.120;-0.200;2022-10-30T15:20:53;101572.63;;;15.35;75.69
35910;BME280;22004;49.120;-0.200;2022-10-30T15:23:30;101572.34;;;15.51;76.82
35910;BME280;22004;49.120;-0.200;2022-10-30T15:26:03;101575.38;;;15.41;77.42
35910;BME280;22004;49.120;-0.200;2022-10-30T15:28:31;101571.22;;;15.39;76.64
35910;BME280;22004;49.120;-0.200;2022-10-30T15:31:06;101563.47;;;15.36;76.15
35910;BME280;22004;49.120;-0.200;2022-10-30T15:33:35;101560.19;;;15.40;75.34
35910;BME280;22004;49.120;-0.200;2022-10-30T15:36:02;101559.59;;;15.23;76.25
35910;BME280;22004;49.120;-0.200;2022-10-30T15:38:28;101560.50;;;15.31;76.47
35910;BME280;22004;49.120;-0.200;2022-10-30T15:41:03;101561.84;;;15.41;75.99
35910;BME280;22004;49.120;-0.200;2022-10-30T15:43:32;101557.16;;;15.29;76.29
35910;BME280;22004;49.120;-0.200;2022-10-30T15:45:59;101569.28;;;15.33;76.81
35910;BME280;22004;49.120;-0.200;2022-10-30T15:51:04;101579.78;;;15.42;76.82
35910;BME280;22004;49.120;-0.200;2022-10-30T15:53:43;101574.53;;;15.19;77.38
35910;BME280;22004;49.120;-0.200;2022-10-30T15:56:28;101574.66;;;14.96;76.93
35910;BME280;22004;49.120;-0.200;2022-10-30T15:59:21;101590.09;;;15.32;78.47
35910;BME280;22004;49.120;-0.200;2022-10-30T16:01:52;101575.22;;;15.07;77.82
35910;BME280;22004;49.120;-0.200;2022-10-30T16:04:21;101575.06;;;15.30;77.99
35910;BME280;22004;49.120;-0.200;2022-10-30T16:06:54;101582.47;;;15.06;77.51
35910;BME280;22004;49.120;-0.200;2022-10-30T16:09:21;101576.34;;;15.12;78.77
35910;BME280;22004;49.120;-0.200;2022-10-30T16:11:48;101576.50;;;15.11;78.74
35910;BME280;22004;49.120;-0.200;2022-10-30T16:14:22;101583.16;;;15.08;78.96
35910;BME280;22004;49.120;-0.200;2022-10-30T16:16:48;101584.75;;;15.03;78.68
35910;BME280;22004;49.120;-0.200;2022-10-30T16:21:47;101584.34;;;15.06;79.13
35910;BME280;22004;49.120;-0.200;2022-10-30T16:24:14;101579.91;;;14.98;76.66
35910;BME280;22004;49.120;-0.200;2022-10-30T16:26:40;101572.06;;;15.03;79.64
35910;BME280;22004;49.120;-0.200;2022-10-30T16:31:38;101570.25;;;15.10;78.75
35910;BME280;22004;49.120;-0.200;2022-10-30T16:34:09;101574.50;;;14.83;77.93
35910;BME280;22004;49.120;-0.200;2022-10-30T16:36:36;101574.25;;;15.14;79.74
35910;BME280;22004;49.120;-0.200;2022-10-30T16:39:03;101572.56;;;14.92;79.47
35910;BME280;22004;49.120;-0.200;2022-10-30T16:41:29;101579.69;;;14.99;77.29
35910;BME280;22004;49.120;-0.200;2022-10-30T16:49:09;101591.50;;;14.77;78.41
35910;BME280;22004;49.120;-0.200;2022-10-30T16:51:38;101596.50;;;14.80;78.29
35910;BME280;22004;49.120;-0.200;2022-10-30T16:54:04;101596.97;;;14.54;77.48
35910;BME280;22004;49.120;-0.200;2022-10-30T16:56:31;101587.19;;;14.68;77.95
35910;BME280;22004;49.120;-0.200;2022-10-30T16:59:11;101594.47;;;14.82;79.19
35910;BME280;22004;49.120;-0.200;2022-10-30T17:01:39;101592.88;;;14.58;77.71
35910;BME280;22004;49.120;-0.200;2022-10-30T17:04:04;101593.34;;;14.62;77.94
35910;BME280;22004;49.120;-0.200;2022-10-30T17:06:43;101604.63;;;14.51;77.58
35910;BME280;22004;49.120;-0.200;2022-10-30T17:09:20;101600.44;;;14.48;79.50
35910;BME280;22004;49.120;-0.200;2022-10-30T17:11:59;101596.78;;;14.56;79.87
35910;BME280;22004;49.120;-0.200;2022-10-30T17:14:25;101600.75;;;14.45;77.09
35910;BME280;22004;49.120;-0.200;2022-10-30T17:16:56;101601.63;;;14.75;80.16
35910;BME280;22004;49.120;-0.200;2022-10-30T17:21:58;101606.81;;;14.32;78.97
35910;BME280;22004;49.120;-0.200;2022-10-30T17:24:29;101600.47;;;14.25;77.70
35910;BME280;22004;49.120;-0.200;2022-10-30T17:27:04;101606.22;;;14.37;79.26
35910;BME280;22004;49.120;-0.200;2022-10-30T17:32:21;101612.91;;;14.49;79.47
35910;BME280;22004;49.120;-0.200;2022-10-30T17:34:48;101609.22;;;14.27;80.41
35910;BME280;22004;49.120;-0.200;2022-10-30T17:37:17;101616.19;;;14.74;80.81
35910;BME280;22004;49.120;-0.200;2022-10-30T17:39:43;101617.47;;;14.93;80.55
35910;BME280;22004;49.120;-0.200;2022-10-30T17:42:09;101609.53;;;14.47;78.08
35910;BME280;22004;49.120;-0.200;2022-10-30T17:44:35;101623.38;;;14.52;80.61
35910;BME280;22004;49.120;-0.200;2022-10-30T17:47:10;101624.59;;;14.41;76.94
35910;BME280;22004;49.120;-0.200;2022-10-30T17:49:37;101633.78;;;14.70;80.04
35910;BME280;22004;49.120;-0.200;2022-10-30T17:52:03;101637.66;;;14.38;77.88
35910;BME280;22004;49.120;-0.200;2022-10-30T17:54:29;101640.25;;;14.46;78.29
35910;BME280;22004;49.120;-0.200;2022-10-30T17:56:54;101646.66;;;14.53;80.71
35910;BME280;22004;49.120;-0.200;2022-10-30T17:59:21;101650.19;;;14.31;78.04
35910;BME280;22004;49.120;-0.200;2022-10-30T18:01:47;101653.44;;;13.88;80.14
35910;BME280;22004;49.120;-0.200;2022-10-30T18:04:17;101653.41;;;14.11;78.48
35910;BME280;22004;49.120;-0.200;2022-10-30T18:06:43;101664.97;;;14.20;80.92
35910;BME280;22004;49.120;-0.200;2022-10-30T18:09:09;101661.22;;;14.67;80.96
35910;BME280;22004;49.120;-0.200;2022-10-30T18:11:36;101668.56;;;14.58;76.93
35910;BME280;22004;49.120;-0.200;2022-10-30T18:14:02;101664.44;;;14.47;78.06
35910;BME280;22004;49.120;-0.200;2022-10-30T18:16:27;101670.22;;;13.99;78.08
35910;BME280;22004;49.120;-0.200;2022-10-30T18:18:53;101672.00;;;14.52;81.00
35910;BME280;22004;49.120;-0.200;2022-10-30T18:21:21;101665.75;;;14.66;79.74
35910;BME280;22004;49.120;-0.200;2022-10-30T18:23:47;101683.38;;;14.39;77.03
35910;BME280;22004;49.120;-0.200;2022-10-30T18:26:16;101684.28;;;14.55;79.53
35910;BME280;22004;49.120;-0.200;2022-10-30T18:28:42;101684.13;;;14.33;77.81
35910;BME280;22004;49.120;-0.200;2022-10-30T18:31:10;101689.41;;;14.50;80.99
35910;BME280;22004;49.120;-0.200;2022-10-30T18:33:37;101685.69;;;14.65;80.76
35910;BME280;22004;49.120;-0.200;2022-10-30T18:36:02;101686.25;;;14.61;80.99
35910;BME280;22004;49.120;-0.200;2022-10-30T18:38:27;101691.78;;;14.44;81.08
35910;BME280;22004;49.120;-0.200;2022-10-30T18:40:53;101695.84;;;14.03;80.32
35910;BME280;22004;49.120;-0.200;2022-10-30T18:43:18;101691.75;;;14.30;78.87
35910;BME280;22004;49.120;-0.200;2022-10-30T18:45:44;101691.06;;;14.51;80.59
35910;BME280;22004;49.120;-0.200;2022-10-30T18:48:09;101686.94;;;14.17;80.03
35910;BME280;22004;49.120;-0.200;2022-10-30T18:50:36;101682.59;;;14.31;80.86
35910;BME280;22004;49.120;-0.200;2022-10-30T18:53:03;101691.38;;;14.56;81.14
35910;BME280;22004;49.120;-0.200;2022-10-30T18:55:34;101690.50;;;14.17;79.86
35910;BME280;22004;49.120;-0.200;2022-10-30T18:58:00;101690.66;;;14.16;82.10
35910;BME280;22004;49.120;-0.200;2022-10-30T19:00:25;101697.22;;;13.99;82.28
35910;BME280;22004;49.120;-0.200;2022-10-30T19:02:54;101694.06;;;14.56;80.76
35910;BME280;22004;49.120;-0.200;2022-10-30T19:07:47;101700.50;;;13.86;79.86
35910;BME280;22004;49.120;-0.200;2022-10-30T19:10:13;101691.53;;;13.93;80.70
35910;BME280;22004;49.120;-0.200;2022-10-30T19:12:38;101695.97;;;14.09;80.80
35910;BME280;22004;49.120;-0.200;2022-10-30T19:15:16;101698.78;;;13.93;81.49
35910;BME280;22004;49.120;-0.200;2022-10-30T19:17:41;101704.06;;;14.32;80.69
35910;BME280;22004;49.120;-0.200;2022-10-30T19:20:07;101696.97;;;14.08;78.95
35910;BME280;22004;49.120;-0.200;2022-10-30T19:22:32;101697.88;;;14.23;81.06
35910;BME280;22004;49.120;-0.200;2022-10-30T19:24:58;101698.84;;;14.08;80.84
35910;BME280;22004;49.120;-0.200;2022-10-30T19:27:23;101703.88;;;14.11;78.06
35910;BME280;22004;49.120;-0.200;2022-10-30T19:29:49;101709.34;;;14.03;79.80
35910;BME280;22004;49.120;-0.200;2022-10-30T19:32:14;101703.09;;;14.25;81.50
35910;BME280;22004;49.120;-0.200;2022-10-30T19:34:39;101697.88;;;14.01;80.47
35910;BME280;22004;49.120;-0.200;2022-10-30T19:37:10;101703.22;;;14.09;81.52
35910;BME280;22004;49.120;-0.200;2022-10-30T19:39:35;101697.50;;;14.27;81.53
35910;BME280;22004;49.120;-0.200;2022-10-30T19:42:01;101695.78;;;13.88;79.30
35910;BME280;22004;49.120;-0.200;2022-10-30T19:44:26;101692.00;;;13.74;82.12
35910;BME280;22004;49.120;-0.200;2022-10-30T19:46:51;101688.78;;;13.70;83.10
35910;BME280;22004;49.120;-0.200;2022-10-30T19:49:19;101699.16;;;14.13;81.06
35910;BME280;22004;49.120;-0.200;2022-10-30T19:51:45;101694.31;;;13.77;81.67
35910;BME280;22004;49.120;-0.200;2022-10-30T19:54:10;101698.34;;;13.81;80.65
35910;BME280;22004;49.120;-0.200;2022-10-30T19:56:36;101707.38;;;13.65;79.25
35910;BME280;22004;49.120;-0.200;2022-10-30T19:59:01;101701.53;;;13.85;82.40
35910;BME280;22004;49.120;-0.200;2022-10-30T20:01:27;101703.47;;;13.37;80.43
35910;BME280;22004;49.120;-0.200;2022-10-30T20:03:52;101706.28;;;14.06;81.96
35910;BME280;22004;49.120;-0.200;2022-10-30T20:06:18;101706.16;;;13.99;79.20
35910;BME280;22004;49.120;-0.200;2022-10-30T20:08:45;101705.06;;;13.23;80.81
35910;BME280;22004;49.120;-0.200;2022-10-30T20:11:10;101709.00;;;13.75;82.16
35910;BME280;22004;49.120;-0.200;2022-10-30T20:13:35;101713.97;;;13.94;81.27
35910;BME280;22004;49.120;-0.200;2022-10-30T20:16:02;101717.13;;;13.43;80.06
35910;BME280;22004;49.120;-0.200;2022-10-30T20:18:31;101717.94;;;13.75;82.06
35910;BME280;22004;49.120;-0.200;2022-10-30T20:20:59;101724.44;;;14.12;82.16
35910;BME280;22004;49.120;-0.200;2022-10-30T20:23:25;101731.09;;;13.78;80.43
35910;BME280;22004;49.120;-0.200;2022-10-30T20:25:59;101727.16;;;14.12;81.63
35910;BME280;22004;49.120;-0.200;2022-10-30T20:28:29;101720.59;;;13.52;80.09
35910;BME280;22004;49.120;-0.200;2022-10-30T20:30:55;101724.31;;;13.82;82.46
35910;BME280;22004;49.120;-0.200;2022-10-30T20:33:22;101732.63;;;14.04;82.99
35910;BME280;22004;49.120;-0.200;2022-10-30T20:35:48;101731.38;;;14.14;81.17
35910;BME280;22004;49.120;-0.200;2022-10-30T20:38:19;101727.41;;;14.25;81.47
35910;BME280;22004;49.120;-0.200;2022-10-30T20:40:46;101722.31;;;14.07;79.72
35910;BME280;22004;49.120;-0.200;2022-10-30T20:43:17;101729.66;;;14.36;81.81
35910;BME280;22004;49.120;-0.200;2022-10-30T20:45:43;101731.84;;;14.18;82.29
35910;BME280;22004;49.120;-0.200;2022-10-30T20:48:09;101733.63;;;14.26;80.77
35910;BME280;22004;49.120;-0.200;2022-10-30T20:50:35;101726.59;;;14.39;81.10
35910;BME280;22004;49.120;-0.200;2022-10-30T20:53:00;101737.25;;;14.18;80.04
35910;BME280;22004;49.120;-0.200;2022-10-30T20:55:26;101733.34;;;14.20;81.44
35910;BME280;22004;49.120;-0.200;2022-10-30T20:57:51;101729.94;;;14.04;81.94
35910;BME280;22004;49.120;-0.200;2022-10-30T21:00:17;101735.00;;;14.21;79.66
35910;BME280;22004;49.120;-0.200;2022-10-30T21:02:42;101738.56;;;14.22;81.75
35910;BME280;22004;49.120;-0.200;2022-10-30T21:05:08;101738.25;;;14.40;81.83
35910;BME280;22004;49.120;-0.200;2022-10-30T21:07:35;101736.34;;;14.26;80.67
35910;BME280;22004;49.120;-0.200;2022-10-30T21:10:00;101736.66;;;14.08;82.21
35910;BME280;22004;49.120;-0.200;2022-10-30T21:12:26;101742.84;;;13.85;81.35
35910;BME280;22004;49.120;-0.200;2022-10-30T21:14:51;101743.53;;;13.87;82.48
35910;BME280;22004;49.120;-0.200;2022-10-30T21:17:16;101742.22;;;14.06;80.03
35910;BME280;22004;49.120;-0.200;2022-10-30T21:19:42;101753.63;;;14.16;78.64
35910;BME280;22004;49.120;-0.200;2022-10-30T21:22:07;101752.31;;;14.35;80.70
35910;BME280;22004;49.120;-0.200;2022-10-30T21:24:33;101749.25;;;14.15;81.42
35910;BME280;22004;49.120;-0.200;2022-10-30T21:26:58;101751.44;;;13.89;79.35
35910;BME280;22004;49.120;-0.200;2022-10-30T21:29:23;101756.56;;;14.30;81.96
35910;BME280;22004;49.120;-0.200;2022-10-30T21:31:49;101748.09;;;14.10;80.94
35910;BME280;22004;49.120;-0.200;2022-10-30T21:34:15;101743.13;;;13.99;79.20
35910;BME280;22004;49.120;-0.200;2022-10-30T21:36:40;101744.31;;;13.96;82.74
35910;BME280;22004;49.120;-0.200;2022-10-30T21:39:06;101743.13;;;14.21;81.54
35910;BME280;22004;49.120;-0.200;2022-10-30T21:41:31;101737.31;;;14.10;82.09
35910;BME280;22004;49.120;-0.200;2022-10-30T21:43:57;101743.13;;;14.21;81.38
35910;BME280;22004;49.120;-0.200;2022-10-30T21:46:26;101738.56;;;14.22;79.43
35910;BME280;22004;49.120;-0.200;2022-10-30T21:48:52;101743.66;;;14.40;81.97
35910;BME280;22004;49.120;-0.200;2022-10-30T21:51:24;101746.34;;;14.40;81.24
35910;BME280;22004;49.120;-0.200;2022-10-30T21:53:51;101741.53;;;14.12;82.15
35910;BME280;22004;49.120;-0.200;2022-10-30T21:56:22;101734.25;;;13.82;82.18
35910;BME280;22004;49.120;-0.200;2022-10-30T21:58:49;101745.97;;;13.97;82.31
35910;BME280;22004;49.120;-0.200;2022-10-30T22:01:34;101745.69;;;13.92;79.38
35910;BME280;22004;49.120;-0.200;2022-10-30T22:04:01;101742.66;;;13.87;81.46
35910;BME280;22004;49.120;-0.200;2022-10-30T22:06:27;101739.44;;;13.91;80.59
35910;BME280;22004;49.120;-0.200;2022-10-30T22:08:54;101739.66;;;14.13;81.54
35910;BME280;22004;49.120;-0.200;2022-10-30T22:11:20;101739.47;;;14.14;81.56
35910;BME280;22004;49.120;-0.200;2022-10-30T22:13:46;101746.38;;;13.86;82.38
35910;BME280;22004;49.120;-0.200;2022-10-30T22:16:13;101745.41;;;14.10;81.36
35910;BME280;22004;49.120;-0.200;2022-10-30T22:18:39;101740.03;;;14.02;82.96
35910;BME280;22004;49.120;-0.200;2022-10-30T22:21:07;101737.94;;;13.89;79.11
35910;BME280;22004;49.120;-0.200;2022-10-30T22:23:33;101738.56;;;14.22;82.03
35910;BME280;22004;49.120;-0.200;2022-10-30T22:26:01;101733.63;;;14.26;81.55
35910;BME280;22004;49.120;-0.200;2022-10-30T22:28:29;101737.16;;;14.26;81.65
35910;BME280;22004;49.120;-0.200;2022-10-30T22:31:00;101725.41;;;13.96;80.77
35910;BME280;22004;49.120;-0.200;2022-10-30T22:33:28;101727.00;;;14.13;82.32
35910;BME280;22004;49.120;-0.200;2022-10-30T22:35:53;101722.72;;;13.65;80.35
35910;BME280;22004;49.120;-0.200;2022-10-30T22:38:19;101720.06;;;13.88;81.37
35910;BME280;22004;49.120;-0.200;2022-10-30T22:40:44;101719.53;;;13.92;83.01
35910;BME280;22004;49.120;-0.200;2022-10-30T22:43:09;101716.19;;;14.13;81.71
35910;BME280;22004;49.120;-0.200;2022-10-30T22:45:35;101715.13;;;13.91;79.00
35910;BME280;22004;49.120;-0.200;2022-10-30T22:48:00;101715.28;;;13.98;82.52
35910;BME280;22004;49.120;-0.200;2022-10-30T22:50:25;101707.13;;;13.83;79.36
35910;BME280;22004;49.120;-0.200;2022-10-30T22:52:51;101689.91;;;14.07;82.60
35910;BME280;22004;49.120;-0.200;2022-10-30T22:55:16;101700.94;;;14.20;81.99
35910;BME280;22004;49.120;-0.200;2022-10-30T22:57:41;101700.13;;;14.12;81.87
35910;BME280;22004;49.120;-0.200;2022-10-30T23:00:08;101704.25;;;13.54;78.60
35910;BME280;22004;49.120;-0.200;2022-10-30T23:02:33;101699.19;;;13.51;84.20
35910;BME280;22004;49.120;-0.200;2022-10-30T23:04:58;101701.72;;;14.06;81.84
35910;BME280;22004;49.120;-0.200;2022-10-30T23:07:24;101703.50;;;13.91;81.65